Wah Cantt Weather



Wah Cantt's Current Weather

Temprature 33.33o clear sky

clear sky

Rain: 0 %

Min Temprature33.33o
Max Temprature33.33o
Humidity34
Wind Speed1.79 m/h
Sun Rise05:13:49
Sun Set18:57:21
Current Time: 08-May-2021 15:47:17
Lat/Lon: 33.7875, 72.7265




Wah Cantt's Geo Location



Wah Cantt's Weather Forecast

Time Overall Temp Min Temp Max Temp Humidity Wind Speed Rain
08-May-2021 (Sat)
17:00:00 clear sky 33.330 33.330 33.760 34 2.7 m/h 0 %
20:00:00 light rain 31.360 27.420 31.360 35 4.09 m/h 16 %
23:00:00 scattered clouds 27.490 24.570 27.490 42 2.61 m/h 0 %
09-May-2021 (Sun)
02:00:00 broken clouds 23.810 23.810 23.810 45 1.52 m/h 0 %
05:00:00 light rain 22.400 22.400 22.400 48 1.92 m/h 12 %
08:00:00 scattered clouds 27.940 27.940 27.940 35 1.91 m/h 0 %
11:00:00 scattered clouds 33.310 33.310 33.310 24 1.73 m/h 0 %
14:00:00 clear sky 36.050 36.050 36.050 19 3.54 m/h 0 %
17:00:00 clear sky 35.380 35.380 35.380 19 2.92 m/h 0 %
20:00:00 clear sky 30.430 30.430 30.430 25 1.35 m/h 0 %
23:00:00 few clouds 26.050 26.050 26.050 39 5.14 m/h 0 %
10-May-2021 (Mon)
02:00:00 broken clouds 24.510 24.510 24.510 43 1.2 m/h 0 %
05:00:00 light rain 22.770 22.770 22.770 52 2.12 m/h 33 %
08:00:00 light rain 27.560 27.560 27.560 38 1.71 m/h 79 %
11:00:00 overcast clouds 32.700 32.700 32.700 26 0.45 m/h 0 %
14:00:00 few clouds 35.700 35.700 35.700 21 2.64 m/h 0 %
17:00:00 few clouds 35.730 35.730 35.730 20 3.38 m/h 0 %
20:00:00 scattered clouds 30.910 30.910 30.910 28 2.85 m/h 0 %
23:00:00 scattered clouds 28.190 28.190 28.190 33 2.06 m/h 0 %
11-May-2021 (Tue)
02:00:00 scattered clouds 25.610 25.610 25.610 41 1.87 m/h 0 %
05:00:00 light rain 24.930 24.930 24.930 43 2.18 m/h 17 %
08:00:00 light rain 29.120 29.120 29.120 34 2.17 m/h 48 %
11:00:00 scattered clouds 34.500 34.500 34.500 23 0.3 m/h 0 %
14:00:00 few clouds 38.070 38.070 38.070 17 3.84 m/h 0 %
17:00:00 few clouds 37.930 37.930 37.930 15 1.55 m/h 0 %
20:00:00 broken clouds 27.310 27.310 27.310 39 6.33 m/h 0 %
23:00:00 light rain 21.860 21.860 21.860 65 8.39 m/h 114 %
12-May-2021 (Wed)
02:00:00 light rain 22.050 22.050 22.050 64 3.27 m/h 242 %
05:00:00 light rain 20.800 20.800 20.800 73 2.96 m/h 35 %
08:00:00 light rain 24.330 24.330 24.330 54 2.92 m/h 129 %
11:00:00 light rain 29.500 29.500 29.500 36 0.54 m/h 42 %
14:00:00 broken clouds 32.980 32.980 32.980 28 2.11 m/h 0 %
17:00:00 light rain 29.190 29.190 29.190 37 4.24 m/h 63 %
20:00:00 moderate rain 23.710 23.710 23.710 58 6.42 m/h 310 %
23:00:00 light rain 22.670 22.670 22.670 63 2.39 m/h 62 %
13-May-2021 (Thu)
02:00:00 light rain 20.100 20.100 20.100 72 1 m/h 198 %
05:00:00 moderate rain 19.520 19.520 19.520 76 1.32 m/h 448 %
08:00:00 light rain 23.140 23.140 23.140 56 1.42 m/h 177 %
11:00:00 scattered clouds 27.760 27.760 27.760 40 2.49 m/h 0 %
14:00:00 broken clouds 30.810 30.810 30.810 28 4.11 m/h 0 %

Famous Cities (60)